RYR1AA EIKN-EGGP
Flight info
| Callsign | RYR1AA |
|---|---|
| Flight time | 0h 45m |
| Altitude | 31000 |
| Route | ELGUX1B ELGUX DCT OLAPO DCT BOFUM |
| Aircraft | B738/M-SDE3FGIJ1LRWY/SB1 |
Departure
| Time | 2026-04-26 12:44 |
|---|---|
| Airport | Ireland West Airport Knock (EIKN) |
Arrival
| Time | 2026-04-26 13:29 |
|---|---|
| Airport | Liverpool John Lennon Airport (EGGP) |
| Time | Latitude | Longitude | Altitude | Speed | Heading |
|---|---|---|---|---|---|
| 2026-04-26 12:13 | 53.91403 | -8.81021 | 641 ft | 0 kts | 259° |
| 2026-04-26 12:37 | 53.91402 | -8.81022 | 644 ft | 0 kts | 253° |
| 2026-04-26 12:37 | 53.91402 | -8.81023 | 643 ft | 0 kts | 245° |
| 2026-04-26 12:37 | 53.91397 | -8.81023 | 643 ft | 1 kts | 189° |
| 2026-04-26 12:38 | 53.91392 | -8.81012 | 643 ft | 2 kts | 128° |
| 2026-04-26 12:38 | 53.91377 | -8.80970 | 641 ft | 6 kts | 121° |
| 2026-04-26 12:38 | 53.91343 | -8.80927 | 641 ft | 6 kts | 158° |
| 2026-04-26 12:38 | 53.91301 | -8.80909 | 641 ft | 4 kts | 167° |
| 2026-04-26 12:39 | 53.91298 | -8.80908 | 641 ft | 0 kts | 167° |
| 2026-04-26 12:41 | 53.91286 | -8.80903 | 641 ft | 4 kts | 167° |
| 2026-04-26 12:41 | 53.91220 | -8.80880 | 644 ft | 14 kts | 168° |
| 2026-04-26 12:41 | 53.91160 | -8.80836 | 645 ft | 9 kts | 119° |
| 2026-04-26 12:41 | 53.91164 | -8.80707 | 644 ft | 15 kts | 78° |
| 2026-04-26 12:42 | 53.91194 | -8.80453 | 645 ft | 26 kts | 78° |
| 2026-04-26 12:42 | 53.91225 | -8.80195 | 641 ft | 13 kts | 79° |
| 2026-04-26 12:42 | 53.91269 | -8.80075 | 641 ft | 9 kts | 46° |
| 2026-04-26 12:42 | 53.91276 | -8.79994 | 641 ft | 6 kts | 128° |
| 2026-04-26 12:43 | 53.91252 | -8.79992 | 641 ft | 1 kts | 217° |
| 2026-04-26 12:43 | 53.91248 | -8.80008 | 641 ft | 3 kts | 254° |
| 2026-04-26 12:43 | 53.91247 | -8.80018 | 641 ft | 1 kts | 255° |
| 2026-04-26 12:43 | 53.91220 | -8.80239 | 642 ft | 52 kts | 259° |
| 2026-04-26 12:44 | 53.91101 | -8.81247 | 643 ft | 120 kts | 258° |
| 2026-04-26 12:44 | 53.90908 | -8.82899 | 836 ft | 154 kts | 260° |
| 2026-04-26 12:44 | 53.90705 | -8.84618 | 1670 ft | 149 kts | 261° |
| 2026-04-26 12:44 | 53.90499 | -8.86439 | 2187 ft | 168 kts | 260° |
| 2026-04-26 12:45 | 53.90248 | -8.88554 | 2443 ft | 198 kts | 259° |
| 2026-04-26 12:45 | 53.89959 | -8.90971 | 2628 ft | 222 kts | 259° |
| 2026-04-26 12:45 | 53.89639 | -8.93645 | 3055 ft | 237 kts | 259° |
| 2026-04-26 12:45 | 53.89308 | -8.96412 | 3766 ft | 243 kts | 257° |
| 2026-04-26 12:46 | 53.88595 | -8.98974 | 4678 ft | 245 kts | 229° |
| 2026-04-26 12:46 | 53.87171 | -9.00585 | 5444 ft | 252 kts | 199° |
| 2026-04-26 12:46 | 53.85420 | -9.00920 | 6243 ft | 258 kts | 176° |
| 2026-04-26 12:46 | 53.83633 | -9.00417 | 7037 ft | 262 kts | 171° |
| 2026-04-26 12:47 | 53.81841 | -8.99766 | 7817 ft | 265 kts | 170° |
| 2026-04-26 12:47 | 53.80022 | -8.99102 | 8622 ft | 269 kts | 169° |
| 2026-04-26 12:47 | 53.78310 | -8.97798 | 9082 ft | 276 kts | 141° |
| 2026-04-26 12:47 | 53.77187 | -8.95161 | 9735 ft | 283 kts | 113° |
| 2026-04-26 12:48 | 53.76689 | -8.91918 | 10546 ft | 287 kts | 102° |
| 2026-04-26 12:48 | 53.76331 | -8.88568 | 11321 ft | 292 kts | 101° |
| 2026-04-26 12:48 | 53.76100 | -8.86273 | 11826 ft | 295 kts | 101° |
| 2026-04-26 12:48 | 53.75751 | -8.82818 | 12607 ft | 300 kts | 101° |
| 2026-04-26 12:49 | 53.75391 | -8.79325 | 13457 ft | 304 kts | 101° |
| 2026-04-26 12:49 | 53.75018 | -8.75779 | 14240 ft | 309 kts | 101° |
| 2026-04-26 12:49 | 53.74634 | -8.72191 | 15017 ft | 313 kts | 101° |
| 2026-04-26 12:49 | 53.74241 | -8.68557 | 15844 ft | 315 kts | 101° |
| 2026-04-26 12:50 | 53.73841 | -8.64905 | 16650 ft | 318 kts | 101° |
| 2026-04-26 12:50 | 53.73435 | -8.61208 | 17453 ft | 322 kts | 101° |
| 2026-04-26 12:50 | 53.73022 | -8.57470 | 18261 ft | 326 kts | 101° |
| 2026-04-26 12:50 | 53.72604 | -8.53692 | 18986 ft | 329 kts | 101° |
| 2026-04-26 12:51 | 53.72179 | -8.49863 | 19678 ft | 333 kts | 101° |
| 2026-04-26 12:51 | 53.71748 | -8.46003 | 20356 ft | 337 kts | 101° |
| 2026-04-26 12:51 | 53.71311 | -8.42097 | 21062 ft | 340 kts | 101° |
| 2026-04-26 12:51 | 53.70939 | -8.38134 | 21724 ft | 345 kts | 92° |
| 2026-04-26 12:52 | 53.71072 | -8.33990 | 21950 ft | 364 kts | 84° |
| 2026-04-26 12:52 | 53.71386 | -8.29632 | 22104 ft | 383 kts | 82° |
| 2026-04-26 12:52 | 53.71749 | -8.25078 | 22356 ft | 399 kts | 82° |
| 2026-04-26 12:52 | 53.72119 | -8.20393 | 22893 ft | 405 kts | 82° |
| 2026-04-26 12:53 | 53.72475 | -8.15665 | 23576 ft | 407 kts | 83° |
| 2026-04-26 12:53 | 53.72817 | -8.10904 | 24167 ft | 410 kts | 83° |
| 2026-04-26 12:53 | 53.73150 | -8.06093 | 24692 ft | 414 kts | 84° |
| 2026-04-26 12:53 | 53.73476 | -8.01243 | 25195 ft | 418 kts | 84° |
| 2026-04-26 12:54 | 53.73801 | -7.96353 | 25706 ft | 421 kts | 84° |
| 2026-04-26 12:54 | 53.74122 | -7.91461 | 26238 ft | 423 kts | 85° |
| 2026-04-26 12:54 | 53.74444 | -7.86530 | 26900 ft | 421 kts | 85° |
| 2026-04-26 12:54 | 53.74762 | -7.81629 | 27610 ft | 419 kts | 85° |
| 2026-04-26 12:55 | 53.75078 | -7.76736 | 28210 ft | 419 kts | 86° |
| 2026-04-26 12:55 | 53.75393 | -7.71833 | 28784 ft | 420 kts | 86° |
| 2026-04-26 12:55 | 53.75706 | -7.66925 | 29429 ft | 419 kts | 86° |
| 2026-04-26 12:55 | 53.76015 | -7.62044 | 30091 ft | 418 kts | 87° |
| 2026-04-26 12:56 | 53.76325 | -7.57119 | 30641 ft | 417 kts | 87° |
| 2026-04-26 12:56 | 53.76631 | -7.52216 | 31083 ft | 418 kts | 87° |
| 2026-04-26 12:56 | 53.76934 | -7.47338 | 31245 ft | 424 kts | 87° |
| 2026-04-26 12:57 | 53.77545 | -7.37435 | 31242 ft | 421 kts | 88° |
| 2026-04-26 12:57 | 53.77800 | -7.27655 | 31245 ft | 414 kts | 100° |
| 2026-04-26 12:58 | 53.76025 | -7.13361 | 31249 ft | 416 kts | 107° |
| 2026-04-26 12:58 | 53.74748 | -7.03830 | 31240 ft | 414 kts | 107° |
| 2026-04-26 12:59 | 53.73545 | -6.94697 | 31242 ft | 411 kts | 107° |
| 2026-04-26 12:59 | 53.72318 | -6.85330 | 31243 ft | 407 kts | 107° |
| 2026-04-26 13:00 | 53.71092 | -6.76017 | 31241 ft | 405 kts | 107° |
| 2026-04-26 13:00 | 53.69862 | -6.66732 | 31258 ft | 406 kts | 107° |
| 2026-04-26 13:01 | 53.68616 | -6.57402 | 31260 ft | 411 kts | 107° |
| 2026-04-26 13:01 | 53.67351 | -6.47985 | 31248 ft | 412 kts | 107° |
| 2026-04-26 13:02 | 53.66079 | -6.38560 | 31254 ft | 412 kts | 107° |
| 2026-04-26 13:02 | 53.64801 | -6.29149 | 31258 ft | 411 kts | 107° |
| 2026-04-26 13:03 | 53.63519 | -6.19774 | 31170 ft | 411 kts | 107° |
| 2026-04-26 13:03 | 53.62876 | -6.15095 | 30902 ft | 408 kts | 107° |
| 2026-04-26 13:03 | 53.62239 | -6.10466 | 30581 ft | 403 kts | 107° |
| 2026-04-26 13:04 | 53.61606 | -6.05883 | 30228 ft | 400 kts | 107° |
| 2026-04-26 13:04 | 53.60975 | -6.01334 | 29840 ft | 397 kts | 107° |
| 2026-04-26 13:04 | 53.60349 | -5.96833 | 29484 ft | 393 kts | 107° |
| 2026-04-26 13:04 | 53.59728 | -5.92379 | 29121 ft | 389 kts | 107° |
| 2026-04-26 13:05 | 53.59110 | -5.87965 | 28728 ft | 386 kts | 107° |
| 2026-04-26 13:05 | 53.58495 | -5.83587 | 28384 ft | 383 kts | 107° |
| 2026-04-26 13:05 | 53.57883 | -5.79239 | 28015 ft | 381 kts | 107° |
| 2026-04-26 13:05 | 53.57271 | -5.74908 | 27656 ft | 379 kts | 107° |
| 2026-04-26 13:06 | 53.56664 | -5.70622 | 27302 ft | 377 kts | 107° |
| 2026-04-26 13:06 | 53.56047 | -5.66278 | 26944 ft | 376 kts | 107° |
| 2026-04-26 13:06 | 53.55440 | -5.62005 | 26595 ft | 376 kts | 107° |
| 2026-04-26 13:06 | 53.54840 | -5.57800 | 26249 ft | 374 kts | 107° |
| 2026-04-26 13:07 | 53.54228 | -5.53526 | 25892 ft | 372 kts | 107° |
| 2026-04-26 13:07 | 53.53654 | -5.49295 | 25539 ft | 371 kts | 102° |
| 2026-04-26 13:07 | 53.53415 | -5.45036 | 25205 ft | 370 kts | 95° |
| 2026-04-26 13:07 | 53.53351 | -5.40707 | 24862 ft | 369 kts | 93° |
| 2026-04-26 13:08 | 53.53314 | -5.36409 | 24521 ft | 367 kts | 93° |
| 2026-04-26 13:08 | 53.53259 | -5.32131 | 24170 ft | 365 kts | 94° |
| 2026-04-26 13:08 | 53.53176 | -5.27814 | 23812 ft | 364 kts | 95° |
| 2026-04-26 13:08 | 53.53076 | -5.23627 | 23411 ft | 362 kts | 95° |
| 2026-04-26 13:09 | 53.52967 | -5.19413 | 23030 ft | 360 kts | 95° |
| 2026-04-26 13:09 | 53.52855 | -5.15229 | 22661 ft | 357 kts | 95° |
| 2026-04-26 13:09 | 53.52731 | -5.11084 | 22313 ft | 354 kts | 95° |
| 2026-04-26 13:09 | 53.52600 | -5.06960 | 21968 ft | 352 kts | 95° |
| 2026-04-26 13:10 | 53.52468 | -5.02860 | 21628 ft | 350 kts | 95° |
| 2026-04-26 13:10 | 53.52337 | -4.98792 | 21291 ft | 347 kts | 95° |
| 2026-04-26 13:10 | 53.52208 | -4.94757 | 20963 ft | 345 kts | 95° |
| 2026-04-26 13:10 | 53.52075 | -4.90741 | 20630 ft | 343 kts | 95° |
| 2026-04-26 13:11 | 53.51944 | -4.86749 | 20297 ft | 341 kts | 95° |
| 2026-04-26 13:11 | 53.51815 | -4.82779 | 19967 ft | 339 kts | 95° |
| 2026-04-26 13:11 | 53.51684 | -4.78831 | 19638 ft | 337 kts | 94° |
| 2026-04-26 13:11 | 53.51553 | -4.74913 | 19316 ft | 336 kts | 94° |
| 2026-04-26 13:12 | 53.51420 | -4.70998 | 18981 ft | 334 kts | 94° |
| 2026-04-26 13:12 | 53.51288 | -4.67107 | 18666 ft | 333 kts | 94° |
| 2026-04-26 13:12 | 53.51155 | -4.63244 | 18298 ft | 332 kts | 94° |
| 2026-04-26 13:12 | 53.51018 | -4.59322 | 17919 ft | 330 kts | 94° |
| 2026-04-26 13:13 | 53.50884 | -4.55485 | 17597 ft | 328 kts | 94° |
| 2026-04-26 13:13 | 53.50750 | -4.51681 | 17265 ft | 326 kts | 95° |
| 2026-04-26 13:13 | 53.50614 | -4.47889 | 16939 ft | 324 kts | 95° |
| 2026-04-26 13:13 | 53.50479 | -4.44122 | 16621 ft | 322 kts | 95° |
| 2026-04-26 13:14 | 53.50343 | -4.40395 | 16316 ft | 320 kts | 95° |
| 2026-04-26 13:14 | 53.50207 | -4.36675 | 15994 ft | 318 kts | 95° |
| 2026-04-26 13:14 | 53.50071 | -4.32981 | 15679 ft | 316 kts | 95° |
| 2026-04-26 13:14 | 53.49935 | -4.29323 | 15369 ft | 314 kts | 95° |
| 2026-04-26 13:15 | 53.49799 | -4.25715 | 15065 ft | 313 kts | 95° |
| 2026-04-26 13:15 | 53.49660 | -4.22036 | 14753 ft | 312 kts | 95° |
| 2026-04-26 13:15 | 53.49522 | -4.18406 | 14448 ft | 310 kts | 95° |
| 2026-04-26 13:15 | 53.49430 | -4.16016 | 14246 ft | 310 kts | 95° |
| 2026-04-26 13:16 | 53.49245 | -4.11234 | 13788 ft | 309 kts | 95° |
| 2026-04-26 13:16 | 53.49106 | -4.07632 | 13452 ft | 307 kts | 95° |
| 2026-04-26 13:16 | 53.48966 | -4.04065 | 13129 ft | 305 kts | 95° |
| 2026-04-26 13:16 | 53.48826 | -4.00535 | 12812 ft | 300 kts | 95° |
| 2026-04-26 13:17 | 53.48311 | -3.93791 | 12210 ft | 285 kts | 110° |
| 2026-04-26 13:17 | 53.47674 | -3.90682 | 11937 ft | 278 kts | 113° |
| 2026-04-26 13:18 | 53.46357 | -3.84711 | 11374 ft | 267 kts | 113° |
| 2026-04-26 13:18 | 53.45729 | -3.81798 | 11105 ft | 263 kts | 113° |
| 2026-04-26 13:18 | 53.44515 | -3.76065 | 10580 ft | 260 kts | 113° |
| 2026-04-26 13:19 | 53.43913 | -3.73189 | 10401 ft | 260 kts | 112° |
| 2026-04-26 13:19 | 53.43322 | -3.70350 | 10243 ft | 258 kts | 113° |
| 2026-04-26 13:19 | 53.42725 | -3.67491 | 9951 ft | 261 kts | 113° |
| 2026-04-26 13:19 | 53.42123 | -3.64609 | 9674 ft | 262 kts | 112° |
| 2026-04-26 13:20 | 53.41530 | -3.61718 | 9392 ft | 263 kts | 109° |
| 2026-04-26 13:20 | 53.41422 | -3.58651 | 9129 ft | 266 kts | 85° |
| 2026-04-26 13:20 | 53.41656 | -3.55595 | 8877 ft | 265 kts | 85° |
| 2026-04-26 13:20 | 53.41887 | -3.52541 | 8606 ft | 264 kts | 85° |
| 2026-04-26 13:21 | 53.42110 | -3.49490 | 8342 ft | 263 kts | 85° |
| 2026-04-26 13:21 | 53.42258 | -3.47432 | 8161 ft | 262 kts | 85° |
| 2026-04-26 13:21 | 53.42471 | -3.44425 | 7902 ft | 261 kts | 85° |
| 2026-04-26 13:21 | 53.42609 | -3.40467 | 7701 ft | 250 kts | 103° |
| 2026-04-26 13:22 | 53.42241 | -3.38640 | 7591 ft | 241 kts | 120° |
| 2026-04-26 13:22 | 53.41160 | -3.35494 | 7190 ft | 231 kts | 124° |
| 2026-04-26 13:22 | 53.40598 | -3.33953 | 6924 ft | 228 kts | 124° |
| 2026-04-26 13:22 | 53.39644 | -3.31868 | 6477 ft | 224 kts | 139° |
| 2026-04-26 13:23 | 53.38501 | -3.30110 | 6044 ft | 221 kts | 140° |
| 2026-04-26 13:23 | 53.37407 | -3.28409 | 5772 ft | 212 kts | 140° |
| 2026-04-26 13:23 | 53.36337 | -3.26734 | 5324 ft | 210 kts | 140° |
| 2026-04-26 13:23 | 53.35287 | -3.25088 | 5053 ft | 199 kts | 140° |
| 2026-04-26 13:24 | 53.34308 | -3.23542 | 4795 ft | 191 kts | 140° |
| 2026-04-26 13:24 | 53.33344 | -3.22021 | 4424 ft | 189 kts | 139° |
| 2026-04-26 13:24 | 53.32561 | -3.20256 | 4035 ft | 192 kts | 118° |
| 2026-04-26 13:24 | 53.31993 | -3.18244 | 3728 ft | 190 kts | 115° |
| 2026-04-26 13:25 | 53.31876 | -3.16127 | 3550 ft | 186 kts | 80° |
| 2026-04-26 13:25 | 53.32079 | -3.14011 | 3313 ft | 183 kts | 87° |
| 2026-04-26 13:25 | 53.32171 | -3.11908 | 3074 ft | 181 kts | 88° |
| 2026-04-26 13:25 | 53.32256 | -3.09823 | 2835 ft | 179 kts | 88° |
| 2026-04-26 13:26 | 53.32345 | -3.07759 | 2573 ft | 177 kts | 88° |
| 2026-04-26 13:26 | 53.32434 | -3.05716 | 2364 ft | 175 kts | 88° |
| 2026-04-26 13:26 | 53.32523 | -3.03669 | 2116 ft | 177 kts | 87° |
| 2026-04-26 13:26 | 53.32614 | -3.01656 | 1880 ft | 171 kts | 88° |
| 2026-04-26 13:27 | 53.32699 | -2.99737 | 1669 ft | 160 kts | 89° |
| 2026-04-26 13:27 | 53.32778 | -2.97960 | 1452 ft | 147 kts | 89° |
| 2026-04-26 13:27 | 53.32852 | -2.96265 | 1256 ft | 147 kts | 89° |
| 2026-04-26 13:27 | 53.32928 | -2.94570 | 1051 ft | 144 kts | 89° |
| 2026-04-26 13:28 | 53.33003 | -2.92906 | 852 ft | 144 kts | 90° |
| 2026-04-26 13:28 | 53.33079 | -2.91232 | 652 ft | 143 kts | 90° |
| 2026-04-26 13:28 | 53.33156 | -2.89563 | 443 ft | 146 kts | 89° |
| 2026-04-26 13:28 | 53.33234 | -2.87854 | 227 ft | 147 kts | 90° |
| 2026-04-26 13:29 | 53.33309 | -2.86170 | 81 ft | 143 kts | 88° |
| 2026-04-26 13:29 | 53.33354 | -2.85177 | 83 ft | 106 kts | 85° |
| 2026-04-26 13:29 | 53.33411 | -2.83943 | 84 ft | 62 kts | 86° |
| 2026-04-26 13:29 | 53.33433 | -2.83637 | 71 ft | 12 kts | 50° |
| 2026-04-26 13:30 | 53.33513 | -2.83629 | 68 ft | 12 kts | 357° |
| 2026-04-26 13:30 | 53.33586 | -2.83689 | 67 ft | 13 kts | 293° |
| 2026-04-26 13:30 | 53.33580 | -2.83845 | 68 ft | 15 kts | 265° |
| 2026-04-26 13:30 | 53.33573 | -2.84033 | 71 ft | 18 kts | 266° |
| 2026-04-26 13:31 | 53.33562 | -2.84259 | 69 ft | 22 kts | 266° |
| 2026-04-26 13:31 | 53.33550 | -2.84528 | 78 ft | 23 kts | 265° |
| 2026-04-26 13:31 | 53.33537 | -2.84790 | 85 ft | 22 kts | 265° |
| 2026-04-26 13:31 | 53.33526 | -2.85045 | 84 ft | 22 kts | 265° |
| 2026-04-26 13:32 | 53.33515 | -2.85276 | 83 ft | 15 kts | 266° |
| 2026-04-26 13:32 | 53.33508 | -2.85433 | 85 ft | 8 kts | 265° |
| 2026-04-26 13:32 | 53.33533 | -2.85501 | 88 ft | 8 kts | 346° |
| 2026-04-26 13:32 | 53.33587 | -2.85511 | 86 ft | 8 kts | 354° |
| 2026-04-26 13:33 | 53.33611 | -2.85584 | 87 ft | 8 kts | 268° |
| 2026-04-26 13:33 | 53.33605 | -2.85700 | 84 ft | 11 kts | 265° |
| 2026-04-26 13:33 | 53.33602 | -2.85773 | 84 ft | 3 kts | 277° |
| 2026-04-26 13:33 | 53.33624 | -2.85789 | 84 ft | 4 kts | 353° |
| 2026-04-26 13:34 | 53.33644 | -2.85792 | 84 ft | 1 kts | 354° |
| 2026-04-26 13:34 | 53.33648 | -2.85793 | 84 ft | 0 kts | 355° |
| 2026-04-26 13:34 | 53.33649 | -2.85793 | 84 ft | 0 kts | 355° |